Latest Weather Observations for Newcastle Nobbys

IDN60801

Issued at 9:32 pm EDT Thursday 23 November 2017 (issued every 30 minutes, with the page automatically refreshed every 10 minutes)

About weather observations | Map of weather stations | Latest weather observations for NSW | Other Formats
Station Details ID: 061055 Name: NEWCASTLE NOBBYS SIGNAL STATION AWS Lat: -32.92 Lon: 151.80 Height: 33.0 m
Data from the previous 72 hours. | See also: Recent months at Newcastle Nobbys
Date/Time
EDT
Temp
°C
App
Temp
°C
Dew
Point
°C
Rel
Hum
%
Delta-T
°C
Wind Press
QNH
hPa
Press
MSL
hPa
Rain since
9am
mm
Dir  Spd
km/h
Gust
km/h
Spd
kts
Gust
kts
23/09:30pm 20.0 18.9 17.4 85 1.6 NE 19 24 10 13 - - 0.0
23/09:00pm 20.2 18.5 18.1 88 1.3 NE 24 30 13 16 - - 0.0
23/08:30pm 20.2 19.3 18.3 89 1.2 NE 20 26 11 14 - - 0.0
23/08:00pm 19.8 19.5 19.1 96 0.4 ENE 19 22 10 12 - - 0.0
23/07:30pm 20.0 19.5 19.0 94 0.6 ENE 20 28 11 15 - - 0.0
23/07:00pm 20.2 18.3 18.5 90 1.1 ENE 26 32 14 17 - - 0.0
23/06:30pm 20.6 18.1 18.9 90 1.1 ENE 30 35 16 19 - - 0.0
23/06:00pm 20.8 17.9 18.9 89 1.2 ENE 32 41 17 22 - - 0.0
23/05:30pm 21.0 17.9 18.4 85 1.6 ENE 32 41 17 22 - - 0.0
23/05:00pm 21.1 17.9 18.1 83 1.9 ENE 32 39 17 21 - - 0.0
23/04:30pm 21.2 17.8 18.2 83 1.9 ENE 33 41 18 22 - - 0.0
23/04:00pm 21.4 18.1 18.4 83 1.9 E 33 39 18 21 - - 0.0
23/03:30pm 21.4 18.5 18.0 81 2.1 E 30 35 16 19 - - 0.0
23/03:00pm 21.5 19.7 18.7 84 1.8 E 26 32 14 17 - - 0.0
23/02:30pm 21.3 20.0 19.0 87 1.5 E 24 28 13 15 - - 0.0
23/02:00pm 21.2 19.7 18.6 85 1.6 E 24 28 13 15 - - 0.0
23/01:30pm 21.1 19.0 18.1 83 1.9 ESE 26 30 14 16 - - 0.0
23/01:00pm 21.6 20.7 18.2 81 2.1 ESE 20 24 11 13 - - 0.0
23/12:30pm 21.6 20.4 18.4 82 2.0 ESE 22 24 12 13 - - 0.0
23/12:00pm 21.5 20.6 18.1 81 2.1 SE 20 24 11 13 - - 0.0
23/11:30am 21.7 21.9 18.5 82 2.0 SE 15 17 8 9 - - 0.0
23/11:00am 21.8 21.9 18.4 81 2.1 SE 15 17 8 9 - - 0.0
23/10:30am 21.8 21.9 18.4 81 2.1 SE 15 17 8 9 - - 0.0
23/10:00am 21.8 22.9 18.0 79 2.4 SSE 9 11 5 6 - - 0.0
23/09:30am 21.8 23.1 18.4 81 2.1 SE 9 9 5 5 - - 0.0
23/09:00am 21.4 23.1 18.4 83 1.9 SE 7 7 4 4 - - 0.0
23/08:30am 20.6 22.8 19.1 91 0.9 S 6 7 3 4 - - 0.0
23/08:00am 20.5 22.7 18.3 87 1.4 SE 4 4 2 2 - - 0.0
23/07:30am 20.5 23.2 18.6 89 1.2 ESE 2 2 1 1 - - 0.0
23/07:00am 19.9 23.2 19.9 100 0.0 ESE 2 2 1 1 - - 0.0
23/06:30am 18.3 20.9 18.3 100 0.0 NE 2 4 1 2 - - 0.0
23/06:00am 17.8 20.1 17.8 100 0.0 ENE 2 4 1 2 - - 0.0
23/05:30am 17.7 19.6 17.7 100 0.0 NNE 4 6 2 3 - - 0.0
23/05:00am 17.7 19.2 17.7 100 0.0 NE 6 7 3 4 - - 0.0
23/04:30am 17.7 19.1 17.7 100 0.0 NE 7 9 4 5 - - 0.0
23/04:00am 17.9 19.3 17.9 100 0.0 NE 7 9 4 5 - - 0.0
23/03:30am 17.9 19.0 17.9 100 0.0 NE 9 13 5 7 - - 0.0
23/03:00am 18.1 19.8 18.1 100 0.0 ENE 6 7 3 4 - - 0.0
23/02:30am 18.2 20.0 18.2 100 0.0 ENE 6 6 3 3 - - 0.0
23/02:00am 18.4 20.6 18.4 100 0.0 NE 4 6 2 3 - - 0.0
23/01:30am 18.5 20.2 18.5 100 0.0 NE 7 11 4 6 - - 0.0
23/01:00am 18.5 19.8 18.5 100 0.0 NE 9 13 5 7 - - 0.0
23/12:30am 18.4 19.7 18.4 100 0.0 NE 9 15 5 8 - - 0.0
23/12:00am 18.7 20.1 18.7 100 0.0 ENE 9 13 5 7 - - 0.0
 
Date/Time
EDT
Temp
°C
App
Temp
°C
Dew
Point
°C
Rel
Hum
%
Delta-T
°C
Wind Press
QNH
hPa
Press
MSL
hPa
Rain since
9am
mm
Dir  Spd
km/h
Gust
km/h
Spd
kts
Gust
kts
22/11:30pm 18.6 20.3 18.6 100 0.0 ENE 7 9 4 5 - - 0.0
22/11:00pm 18.9 20.4 18.9 100 0.0 ENE 9 13 5 7 - - 0.0
22/10:30pm 18.8 19.5 18.8 100 0.0 ENE 13 17 7 9 - - 0.0
22/10:00pm 18.7 18.6 18.7 100 0.0 ENE 17 20 9 11 - - 0.0
22/09:30pm 19.1 19.5 19.1 100 0.0 E 15 17 8 9 - - 0.0
22/09:00pm 19.1 19.9 19.1 100 0.0 E 13 17 7 9 - - 0.0
22/08:30pm 19.2 19.3 19.2 100 0.0 E 17 19 9 10 - - 0.0
22/08:00pm 19.2 19.2 19.0 99 0.1 E 17 20 9 11 - - 0.0
22/07:30pm 19.4 18.9 18.6 95 0.5 E 19 20 10 11 - - 0.0
22/07:00pm 19.5 19.2 18.2 92 0.8 ESE 17 19 9 10 - - 0.0
22/06:30pm 19.9 19.1 18.0 89 1.2 ESE 19 20 10 11 - - 0.0
22/06:00pm 20.1 19.6 17.7 86 1.5 ESE 17 20 9 11 - - 0.0
22/05:30pm 19.3 18.1 17.1 87 1.3 SE 19 20 10 11 - - 0.0
22/05:00pm 20.7 19.5 17.5 82 2.0 ESE 20 24 11 13 - - 0.0
22/04:30pm 20.2 20.6 17.2 83 1.8 ESE 11 17 6 9 - - 0.0
22/04:00pm 20.0 18.1 16.8 82 1.9 ESE 22 26 12 14 - - 0.0
22/03:30pm 21.9 22.2 18.7 82 2.0 E 15 17 8 9 - - 0.0
22/03:00pm 21.7 20.6 17.3 76 2.7 SE 19 22 10 12 - - 0.0
22/02:30pm 21.7 20.9 17.1 75 2.8 SE 17 19 9 10 - - 0.0
22/02:00pm 22.0 21.0 16.7 72 3.2 SE 17 20 9 11 - - 0.0
22/01:30pm 22.1 21.3 17.2 74 3.0 SE 17 20 9 11 - - 0.0
22/01:00pm 22.2 21.8 17.1 73 3.1 SE 15 19 8 10 - - 0.0
22/12:30pm 22.1 22.1 17.2 74 3.0 SE 13 15 7 8 - - 0.0
22/12:00pm 22.4 23.3 17.5 74 3.0 SE 9 11 5 6 - - 0.0
22/11:30am 22.2 22.6 17.3 74 3.0 SE 11 13 6 7 - - 0.0
22/11:00am 22.1 22.4 17.0 73 3.1 SE 11 13 6 7 - - 0.0
22/10:30am 22.0 22.8 17.4 75 2.8 SE 9 11 5 6 - - 0.0
22/10:00am 21.3 21.9 16.9 76 2.7 SSE 9 11 5 6 - - 0.0
22/09:30am 21.5 22.9 17.7 79 2.4 S 7 7 4 4 - - 0.0
22/09:00am 21.1 22.2 17.1 78 2.4 SE 7 7 4 4 - - 0.0
22/08:30am 20.8 21.2 17.2 80 2.2 SE 11 13 6 7 - - 0.0
22/08:00am 20.4 20.7 17.0 81 2.1 ESE 11 13 6 7 - - 0.0
22/07:30am 19.9 20.8 16.7 82 1.9 ESE 7 9 4 5 - - 0.0
22/07:00am 19.7 21.5 17.5 87 1.3 ESE 4 6 2 3 - - 0.0
22/06:30am 18.7 20.5 18.4 98 0.2 SSE 6 6 3 3 - - 0.0
22/06:00am 18.0 19.7 18.0 100 0.0 SSE 6 7 3 4 - - 0.0
22/05:30am 17.8 19.4 17.8 100 0.0 S 6 7 3 4 - - 0.0
22/05:00am 17.7 18.7 17.7 100 0.0 S 9 9 5 5 - - 0.0
22/04:30am 17.8 18.8 17.8 100 0.0 S 9 11 5 6 - - 0.0
22/04:00am 17.8 18.8 17.8 100 0.0 S 9 11 5 6 - - 0.0
22/03:30am 17.8 19.2 17.8 100 0.0 SSW 7 9 4 5 - - 0.0
22/03:00am 17.7 19.2 17.7 100 0.0 SSW 6 7 3 4 - - 0.0
22/02:30am 18.0 19.5 17.7 98 0.2 S 6 7 3 4 - - 0.0
22/02:00am 18.1 20.2 17.3 95 0.5 WSW 2 4 1 2 - - 0.0
22/01:30am 17.9 19.8 17.6 98 0.2 W 4 6 2 3 - - 0.0
22/01:00am 17.9 19.5 17.9 100 0.0 NNW 6 7 3 4 - - 0.0
22/12:30am 17.7 19.2 17.7 100 0.0 N 6 7 3 4 - - 0.0
22/12:00am 18.0 20.4 18.0 100 0.0 NE 2 4 1 2 - - 0.0
 
Date/Time
EDT
Temp
°C
App
Temp
°C
Dew
Point
°C
Rel
Hum
%
Delta-T
°C
Wind Press
QNH
hPa
Press
MSL
hPa
Rain since
9am
mm
Dir  Spd
km/h
Gust
km/h
Spd
kts
Gust
kts
21/11:30pm 18.2 20.7 18.2 100 0.0 ENE 2 4 1 2 - - 0.0
21/11:00pm 18.3 20.1 18.3 100 0.0 E 6 7 3 4 - - 0.0
21/10:30pm 18.3 20.0 18.1 99 0.1 E 6 6 3 3 - - 0.0
21/10:00pm 18.5 20.1 17.9 96 0.4 E 6 7 3 4 - - 0.0
21/09:30pm 18.6 19.5 17.6 94 0.6 E 9 11 5 6 - - 0.0
21/09:00pm 18.7 19.7 17.7 94 0.6 E 9 11 5 6 - - 0.0
21/08:30pm 18.7 19.6 17.5 93 0.7 ENE 9 13 5 7 - - 0.0
21/08:00pm 18.9 19.1 17.6 92 0.8 ENE 13 17 7 9 - - 0.0
21/07:30pm 19.4 19.1 17.4 88 1.2 E 15 19 8 10 - - 0.0
21/07:00pm 19.6 19.1 17.0 85 1.6 E 15 19 8 10 - - 0.0
21/06:30pm 19.8 18.4 16.6 82 1.9 ESE 19 20 10 11 - - 0.0
21/06:00pm 20.1 18.1 15.5 75 2.7 ESE 20 24 11 13 - - 0.0
21/05:30pm 20.2 18.4 15.6 75 2.7 ESE 19 22 10 12 - - 0.0
21/05:00pm 20.9 19.7 16.1 74 2.9 ESE 17 20 9 11 - - 0.0
21/04:30pm 20.8 19.6 16.2 75 2.8 SE 17 19 9 10 - - 0.0
21/04:00pm 21.1 20.2 15.9 72 3.1 ESE 15 17 8 9 - - 0.0
21/03:30pm 21.0 19.6 15.5 71 3.3 ESE 17 19 9 10 - - 0.0
21/03:00pm 21.1 19.3 15.6 71 3.3 SE 19 20 10 11 - - 0.0
21/02:30pm 21.1 19.3 15.4 70 3.4 SE 19 20 10 11 - - 0.0
21/02:00pm 21.1 19.5 15.9 72 3.1 SE 19 20 10 11 - - 0.0
21/01:30pm 21.0 19.6 15.5 71 3.3 SE 17 19 9 10 - - 0.0
21/01:00pm 21.0 19.7 15.8 72 3.1 SE 17 19 9 10 - - 0.0
21/12:30pm 20.9 20.1 16.1 74 2.9 SE 15 17 8 9 - - 0.0
21/12:00pm 20.8 20.0 16.2 75 2.8 SE 15 15 8 8 - - 0.0
21/11:30am 20.9 20.2 16.5 76 2.7 SE 15 17 8 9 - - 0.0
21/11:00am 20.8 19.9 15.8 73 3.0 SSE 15 17 8 9 - - 0.0
21/10:30am 21.0 20.9 16.0 73 3.0 SSE 11 11 6 6 - - 0.0
21/10:00am 20.4 20.3 16.0 76 2.6 SSE 11 13 6 7 - - 0.0
21/09:30am 20.1 20.2 16.5 80 2.2 S 11 11 6 6 - - 0.0
21/09:00am 19.2 18.3 14.9 76 2.5 S 13 15 7 8 - - 0.0
21/08:30am 19.0 18.0 14.5 75 2.6 S 13 13 7 7 - - 0.0
21/08:00am 18.9 17.8 14.2 74 2.7 SSE 13 13 7 7 - - 0.0
21/07:30am 19.0 17.8 14.1 73 2.8 S 13 15 7 8 - - 0.0
21/07:00am 18.7 17.8 14.8 78 2.3 SSE 13 17 7 9 - - 0.0
21/06:30am 18.3 16.3 14.0 76 2.5 SSE 17 19 9 10 - - 0.0
21/06:00am 18.2 16.4 14.5 79 2.1 SSE 17 19 9 10 - - 0.0
21/05:30am 18.3 15.4 14.0 76 2.5 SE 22 24 12 13 - - 0.0
21/05:00am 18.2 16.5 14.7 80 2.0 SE 17 22 9 12 - - 0.0
21/04:30am 18.4 16.4 14.9 80 2.0 SE 19 20 10 11 - - 0.0
21/04:00am 18.3 16.8 15.2 82 1.8 SE 17 19 9 10 - - 0.0
21/03:30am 18.2 17.2 15.6 85 1.5 SE 15 19 8 10 - - 0.0
21/03:00am 18.2 18.4 16.7 91 0.9 ESE 11 13 6 7 - - 0.0
21/02:30am 18.1 17.6 17.0 93 0.7 ESE 15 17 8 9 - - 0.0
21/02:00am 18.3 19.9 18.3 100 0.0 SE 7 9 4 5 - - 0.0
21/01:30am 18.4 19.9 17.6 95 0.5 SSE 6 7 3 4 - - 0.0
21/01:00am 18.3 20.1 17.5 95 0.5 SSE 4 6 2 3 - - 0.0
21/12:30am 18.4 19.5 18.1 98 0.2 SSE 9 13 5 7 - - 0.0
21/12:00am 18.4 19.2 17.4 94 0.6 S 9 11 5 6 - - 0.0
 
Date/Time
EDT
Temp
°C
App
Temp
°C
Dew
Point
°C
Rel
Hum
%
Delta-T
°C
Wind Press
QNH
hPa
Press
MSL
hPa
Rain since
9am
mm
Dir  Spd
km/h
Gust
km/h
Spd
kts
Gust
kts
20/11:30pm 18.4 18.9 17.4 94 0.6 SSE 11 13 6 7 - - 0.0
20/11:00pm 18.3 19.9 18.3 100 0.0 SSE 7 9 4 5 - - 0.0
20/10:30pm 18.5 19.6 17.9 96 0.4 SE 9 9 5 5 - - 0.0
20/10:00pm 18.4 19.1 17.1 92 0.8 SE 9 9 5 5 - - 0.0

Other Formats:

Comma delimited format used in spreadsheet applications
http://www.bom.gov.au/fwo/IDN60801/IDN60801.94774.axf

JavaScript Object Notation format (JSON) in row-major order
http://www.bom.gov.au/fwo/IDN60801/IDN60801.94774.json